Dubuque, IA

1:51 AM CDT on August 20, 2014 (GMT -0500)
Platteville Municipal | Change Station
CLOSE
Current Station
Airport
Location: Platteville,
Elevation: 1024 ft
Nearby Weather Stations

Elev 1024 ft 42.69 °N, 90.44 °W | Updated 16 minutes ago

Scattered Clouds
Scattered Clouds
64 °F
Feels Like 64 °F
N
0
Wind Variable Wind from North

Today
High -- | Low -- °F
--% Chance of Precip.
Yesterday
High -- | Low -- °F
Precip. -- in
6:14 AM 7:56 PM
Waning Crescent, 24% visible
Pressure 29.83 in
Visibility 10.0 miles
Clouds Scattered Clouds 7000 ft
Dew Point 62 °F
Humidity 94%
Rainfall 0.00 in
Snow Depth Not available.
UV 0 out of 12
Pollen 7.30 out of 12
Air Quality Not available.
Flu Activity Not available.
METAR KPVB 200635Z AUTO 00000KT 10SM SCT070 18/17 A2983 RMK AO1 T01780169

More Conditions Fewer Conditions

Pressure 29.83 in
Visibility 10.0 miles
Clouds Scattered Clouds 7000 ft
Dew Point 62 °F
Humidity 94%
Rainfall 0.00 in
Snow Depth Not available.
UV 0 out of 12
Pollen 7.30 out of 12
Air Quality Not available.
Flu Activity Not available.
METAR KPVB 200635Z AUTO 00000KT 10SM SCT070 18/17 A2983 RMK AO1 T01780169

More Conditions Fewer Conditions

10-Day Weather Forecast

Almanac

Astronomy

Aug. 20, 2014 Rise Set
Actual Time 6:14 AM CDT 7:56 PM CDT
Civil Twilight 5:44 AM CDT 8:26 PM CDT
Nautical Twilight 5:08 AM CDT 9:02 PM CDT
Astronomical Twilight 4:29 AM CDT 9:41 PM CDT
Moon 1:52 AM CDT 4:43 PM CDT
Length of Visible Light 14h 41m
Length of Day
13h 41m
Tomorrow will be 2m 39s shorter.
Waning Crescent, 24% of the Moon is Illuminated
Today
Waning Crescent
Aug 25
New
Sep 2
First Quarter
Sep 8
Full
Sep 15
Last Quarter

Today's Extremes

State Highs State Lows

Community

WunderPhotos

Upload Photos

1,745,592 photos uploaded!

Nearby

Snow Depth

Station Depth Elevation
No new snow has been reported.

Earthquake Activity

City Distance Mag. Time & Date
No recent earthquake activity has been reported nearby.
Minimum magnitude displayed is 2.5.

Coastal Water Temperatures

Place Temperature
No Stations Reporting

Nearby Weather Stations